sensor_id;sensor_type;location;lat;lon;timestamp;pressure;altitude;pressure_sealevel;temperature;humidity
73332;BME280;61560;33.718;73.040;2023-03-23T00:02:27;94661.91;;;16.69;73.48
73332;BME280;61560;33.718;73.040;2023-03-23T00:04:58;94665.25;;;16.55;75.04
73332;BME280;61560;33.718;73.040;2023-03-23T00:07:26;94666.34;;;16.36;76.50
73332;BME280;61560;33.718;73.040;2023-03-23T00:09:55;94666.47;;;16.23;77.35
73332;BME280;61560;33.718;73.040;2023-03-23T00:12:25;94659.53;;;16.19;77.55
73332;BME280;61560;33.718;73.040;2023-03-23T00:15:03;94667.69;;;16.22;77.91
73332;BME280;61560;33.718;73.040;2023-03-23T00:17:32;94665.94;;;16.16;79.04
73332;BME280;61560;33.718;73.040;2023-03-23T00:20:03;94672.72;;;16.15;79.11
73332;BME280;61560;33.718;73.040;2023-03-23T00:22:33;94670.69;;;16.15;79.45
73332;BME280;61560;33.718;73.040;2023-03-23T00:25:05;94669.63;;;16.13;79.60
73332;BME280;61560;33.718;73.040;2023-03-23T00:27:32;94657.94;;;16.09;79.80
73332;BME280;61560;33.718;73.040;2023-03-23T00:29:59;94660.81;;;16.05;80.17
73332;BME280;61560;33.718;73.040;2023-03-23T00:32:26;94667.72;;;16.01;80.50
73332;BME280;61560;33.718;73.040;2023-03-23T00:35:02;94679.47;;;15.92;79.88
73332;BME280;61560;33.718;73.040;2023-03-23T00:37:30;94691.28;;;15.93;80.14
73332;BME280;61560;33.718;73.040;2023-03-23T00:39:57;94690.19;;;15.90;80.27
73332;BME280;61560;33.718;73.040;2023-03-23T00:42:27;94700.94;;;15.88;80.64
73332;BME280;61560;33.718;73.040;2023-03-23T00:44:54;94706.88;;;15.87;80.44
73332;BME280;61560;33.718;73.040;2023-03-23T00:47:27;94710.41;;;15.87;80.42
73332;BME280;61560;33.718;73.040;2023-03-23T00:49:54;94715.81;;;15.91;79.80
73332;BME280;61560;33.718;73.040;2023-03-23T00:52:22;94704.56;;;15.85;80.27
73332;BME280;61560;33.718;73.040;2023-03-23T00:54:50;94708.75;;;15.90;80.54
73332;BME280;61560;33.718;73.040;2023-03-23T00:57:18;94701.44;;;15.96;80.18
73332;BME280;61560;33.718;73.040;2023-03-23T00:59:45;94688.97;;;15.91;79.59
73332;BME280;61560;33.718;73.040;2023-03-23T01:02:14;94699.69;;;15.89;79.89
73332;BME280;61560;33.718;73.040;2023-03-23T01:04:41;94710.91;;;15.95;79.90
73332;BME280;61560;33.718;73.040;2023-03-23T01:07:11;94708.16;;;15.95;79.36
73332;BME280;61560;33.718;73.040;2023-03-23T01:09:44;94710.28;;;15.91;80.07
73332;BME280;61560;33.718;73.040;2023-03-23T01:12:12;94731.31;;;15.88;80.46
73332;BME280;61560;33.718;73.040;2023-03-23T01:14:40;94737.47;;;15.92;79.80
73332;BME280;61560;33.718;73.040;2023-03-23T01:17:07;94742.78;;;15.87;78.46
73332;BME280;61560;33.718;73.040;2023-03-23T01:19:35;94752.94;;;15.90;78.77
73332;BME280;61560;33.718;73.040;2023-03-23T01:22:03;94759.34;;;15.87;79.94
73332;BME280;61560;33.718;73.040;2023-03-23T01:24:31;94763.91;;;15.81;80.45
73332;BME280;61560;33.718;73.040;2023-03-23T01:26:58;94750.03;;;15.72;80.00
73332;BME280;61560;33.718;73.040;2023-03-23T01:29:30;94763.59;;;15.79;80.26
73332;BME280;61560;33.718;73.040;2023-03-23T01:31:57;94762.84;;;15.78;80.99
73332;BME280;61560;33.718;73.040;2023-03-23T01:34:25;94764.50;;;15.76;80.74
73332;BME280;61560;33.718;73.040;2023-03-23T01:36:52;94769.69;;;15.74;81.39
73332;BME280;61560;33.718;73.040;2023-03-23T01:39:20;94770.91;;;15.73;81.19
73332;BME280;61560;33.718;73.040;2023-03-23T01:41:47;94762.94;;;15.75;81.01
73332;BME280;61560;33.718;73.040;2023-03-23T01:47:08;94748.69;;;15.76;81.11
73332;BME280;61560;33.718;73.040;2023-03-23T01:49:42;94752.47;;;15.70;81.86
73332;BME280;61560;33.718;73.040;2023-03-23T01:52:18;94754.78;;;15.71;82.40
73332;BME280;61560;33.718;73.040;2023-03-23T01:54:51;94756.13;;;15.67;82.42
73332;BME280;61560;33.718;73.040;2023-03-23T01:57:22;94753.03;;;15.65;82.81
73332;BME280;61560;33.718;73.040;2023-03-23T01:59:58;94748.16;;;15.69;82.07
73332;BME280;61560;33.718;73.040;2023-03-23T02:02:44;94734.81;;;15.67;82.36
73332;BME280;61560;33.718;73.040;2023-03-23T02:05:30;94734.66;;;15.71;82.26
73332;BME280;61560;33.718;73.040;2023-03-23T02:08:09;94730.81;;;15.68;81.98
73332;BME280;61560;33.718;73.040;2023-03-23T02:10:37;94719.56;;;15.63;81.63
73332;BME280;61560;33.718;73.040;2023-03-23T02:13:07;94721.00;;;15.67;80.03
73332;BME280;61560;33.718;73.040;2023-03-23T02:15:45;94720.31;;;15.76;80.25
73332;BME280;61560;33.718;73.040;2023-03-23T02:33:29;94708.53;;;15.63;78.73
73332;BME280;61560;33.718;73.040;2023-03-23T02:39:08;94711.94;;;15.67;78.60
73332;BME280;61560;33.718;73.040;2023-03-23T02:41:41;94705.84;;;15.72;78.29
73332;BME280;61560;33.718;73.040;2023-03-23T02:44:12;94710.03;;;15.76;78.15
73332;BME280;61560;33.718;73.040;2023-03-23T02:46:40;94713.78;;;15.82;78.69
73332;BME280;61560;33.718;73.040;2023-03-23T02:49:10;94708.75;;;15.90;78.53
73332;BME280;61560;33.718;73.040;2023-03-23T02:51:39;94711.25;;;15.97;78.94
73332;BME280;61560;33.718;73.040;2023-03-23T02:54:09;94712.34;;;15.99;79.29
73332;BME280;61560;33.718;73.040;2023-03-23T02:56:37;94712.34;;;15.99;80.92
73332;BME280;61560;33.718;73.040;2023-03-23T02:59:11;94713.25;;;15.96;80.29
73332;BME280;61560;33.718;73.040;2023-03-23T03:04:11;94724.34;;;16.05;80.07
73332;BME280;61560;33.718;73.040;2023-03-23T03:15:04;94749.47;;;16.20;78.48
73332;BME280;61560;33.718;73.040;2023-03-23T03:17:35;94751.41;;;16.10;78.36
73332;BME280;61560;33.718;73.040;2023-03-23T03:20:07;94735.09;;;16.03;78.84
73332;BME280;61560;33.718;73.040;2023-03-23T04:56:28;94822.22;;;16.51;83.03
73332;BME280;61560;33.718;73.040;2023-03-23T04:59:01;94823.63;;;16.56;82.83
73332;BME280;61560;33.718;73.040;2023-03-23T05:01:41;94825.56;;;16.68;82.75
73332;BME280;61560;33.718;73.040;2023-03-23T05:04:17;94830.69;;;16.78;82.50
73332;BME280;61560;33.718;73.040;2023-03-23T05:07:20;94834.72;;;16.86;82.16
73332;BME280;61560;33.718;73.040;2023-03-23T05:09:49;94826.47;;;16.95;81.82
73332;BME280;61560;33.718;73.040;2023-03-23T05:12:26;94820.34;;;17.00;81.65
73332;BME280;61560;33.718;73.040;2023-03-23T05:15:01;94819.31;;;17.07;81.37
73332;BME280;61560;33.718;73.040;2023-03-23T05:17:31;94829.97;;;17.17;81.34
73332;BME280;61560;33.718;73.040;2023-03-23T05:20:01;94826.59;;;17.23;80.04
73332;BME280;61560;33.718;73.040;2023-03-23T05:22:44;94839.72;;;17.31;78.75
73332;BME280;61560;33.718;73.040;2023-03-23T05:25:16;94840.03;;;17.33;77.40
73332;BME280;61560;33.718;73.040;2023-03-23T05:27:49;94836.94;;;17.31;76.35
73332;BME280;61560;33.718;73.040;2023-03-23T05:30:30;94839.88;;;17.37;76.97
73332;BME280;61560;33.718;73.040;2023-03-23T05:32:57;94844.69;;;17.45;77.39
73332;BME280;61560;33.718;73.040;2023-03-23T05:35:43;94843.72;;;17.61;75.91
73332;BME280;61560;33.718;73.040;2023-03-23T05:38:19;94848.66;;;17.75;75.63
73332;BME280;61560;33.718;73.040;2023-03-23T05:40:46;94845.59;;;17.82;75.11
73332;BME280;61560;33.718;73.040;2023-03-23T05:43:17;94840.53;;;17.89;74.92
73332;BME280;61560;33.718;73.040;2023-03-23T05:46:07;94843.50;;;18.04;74.04
73332;BME280;61560;33.718;73.040;2023-03-23T05:48:36;94849.03;;;18.13;74.02
73332;BME280;61560;33.718;73.040;2023-03-23T05:51:08;94848.75;;;18.20;74.42
73332;BME280;61560;33.718;73.040;2023-03-23T05:53:40;94854.16;;;18.33;72.72
73332;BME280;61560;33.718;73.040;2023-03-23T05:56:08;94852.47;;;18.44;72.67
73332;BME280;61560;33.718;73.040;2023-03-23T05:58:57;94839.97;;;18.58;71.07
73332;BME280;61560;33.718;73.040;2023-03-23T06:01:27;94833.50;;;18.70;69.64
73332;BME280;61560;33.718;73.040;2023-03-23T06:03:54;94837.59;;;18.93;69.40
73332;BME280;61560;33.718;73.040;2023-03-23T06:06:37;94828.00;;;19.21;68.68
73332;BME280;61560;33.718;73.040;2023-03-23T06:09:08;94826.19;;;19.50;67.71
73332;BME280;61560;33.718;73.040;2023-03-23T06:11:54;94822.22;;;19.75;66.37
73332;BME280;61560;33.718;73.040;2023-03-23T06:14:31;94819.59;;;19.95;64.76
73332;BME280;61560;33.718;73.040;2023-03-23T06:16:59;94816.44;;;20.11;65.17
73332;BME280;61560;33.718;73.040;2023-03-23T06:19:26;94819.97;;;20.35;64.74
73332;BME280;61560;33.718;73.040;2023-03-23T06:22:04;94819.97;;;20.35;58.46
73332;BME280;61560;33.718;73.040;2023-03-23T06:24:58;94820.75;;;20.36;59.54
73332;BME280;61560;33.718;73.040;2023-03-23T06:27:35;94815.50;;;20.53;60.67
73332;BME280;61560;33.718;73.040;2023-03-23T06:30:05;94814.09;;;20.72;61.37
73332;BME280;61560;33.718;73.040;2023-03-23T06:32:33;94808.53;;;20.86;61.34
73332;BME280;61560;33.718;73.040;2023-03-23T06:35:02;94813.28;;;21.09;60.87
73332;BME280;61560;33.718;73.040;2023-03-23T06:38:01;94811.53;;;21.27;61.56
73332;BME280;61560;33.718;73.040;2023-03-23T06:40:46;94799.41;;;21.44;61.62
73332;BME280;61560;33.718;73.040;2023-03-23T06:43:14;94802.34;;;21.55;61.08
73332;BME280;61560;33.718;73.040;2023-03-23T06:46:06;94802.47;;;21.46;61.36
73332;BME280;61560;33.718;73.040;2023-03-23T06:48:56;94806.06;;;21.32;62.23
73332;BME280;61560;33.718;73.040;2023-03-23T06:51:37;94809.72;;;21.24;63.03
73332;BME280;61560;33.718;73.040;2023-03-23T06:54:04;94802.81;;;21.04;63.90
73332;BME280;61560;33.718;73.040;2023-03-23T06:56:36;94805.56;;;20.90;64.55
73332;BME280;61560;33.718;73.040;2023-03-23T06:59:04;94789.03;;;20.72;65.03
73332;BME280;61560;33.718;73.040;2023-03-23T07:01:32;94793.16;;;20.62;65.47
73332;BME280;61560;33.718;73.040;2023-03-23T07:04:01;94795.44;;;20.49;65.70
73332;BME280;61560;33.718;73.040;2023-03-23T07:06:38;94791.03;;;20.42;65.99
73332;BME280;61560;33.718;73.040;2023-03-23T07:09:08;94796.00;;;20.38;66.78
73332;BME280;61560;33.718;73.040;2023-03-23T07:11:36;94794.94;;;20.35;66.63
73332;BME280;61560;33.718;73.040;2023-03-23T07:14:15;94785.44;;;20.27;66.37
73332;BME280;61560;33.718;73.040;2023-03-23T07:16:42;94781.28;;;20.23;66.69
73332;BME280;61560;33.718;73.040;2023-03-23T07:19:09;94770.66;;;20.21;66.41
73332;BME280;61560;33.718;73.040;2023-03-23T07:21:37;94772.81;;;20.17;66.06
73332;BME280;61560;33.718;73.040;2023-03-23T07:24:04;94762.16;;;20.16;66.25
73332;BME280;61560;33.718;73.040;2023-03-23T07:26:58;94763.22;;;20.18;66.23
73332;BME280;61560;33.718;73.040;2023-03-23T07:29:26;94751.19;;;20.21;66.82
73332;BME280;61560;33.718;73.040;2023-03-23T07:32:05;94749.84;;;20.31;66.41
73332;BME280;61560;33.718;73.040;2023-03-23T07:34:33;94747.25;;;20.42;66.40
73332;BME280;61560;33.718;73.040;2023-03-23T07:37:20;94752.06;;;20.57;65.20
73332;BME280;61560;33.718;73.040;2023-03-23T07:39:48;94754.88;;;20.71;64.05
73332;BME280;61560;33.718;73.040;2023-03-23T07:42:16;94747.88;;;20.76;62.40
73332;BME280;61560;33.718;73.040;2023-03-23T07:44:56;94743.28;;;20.87;63.38
73332;BME280;61560;33.718;73.040;2023-03-23T07:47:24;94729.63;;;21.04;63.12
73332;BME280;61560;33.718;73.040;2023-03-23T07:49:52;94727.97;;;21.12;61.37
73332;BME280;61560;33.718;73.040;2023-03-23T07:52:32;94720.78;;;21.20;61.35
73332;BME280;61560;33.718;73.040;2023-03-23T07:55:01;94716.41;;;21.34;60.20
73332;BME280;61560;33.718;73.040;2023-03-23T07:57:56;94714.53;;;21.45;59.54
73332;BME280;61560;33.718;73.040;2023-03-23T08:00:24;94718.94;;;21.52;59.33
73332;BME280;61560;33.718;73.040;2023-03-23T08:02:55;94719.28;;;21.59;58.78
73332;BME280;61560;33.718;73.040;2023-03-23T08:05:45;94706.78;;;21.69;57.87
73332;BME280;61560;33.718;73.040;2023-03-23T08:08:27;94699.81;;;21.79;57.92
73332;BME280;61560;33.718;73.040;2023-03-23T08:11:13;94699.31;;;22.01;57.38
73332;BME280;61560;33.718;73.040;2023-03-23T08:14:11;94693.78;;;22.27;56.19
73332;BME280;61560;33.718;73.040;2023-03-23T08:16:58;94692.94;;;22.41;54.30
73332;BME280;61560;33.718;73.040;2023-03-23T08:19:48;94687.88;;;22.45;55.43
73332;BME280;61560;33.718;73.040;2023-03-23T08:22:32;94675.13;;;22.64;52.80
73332;BME280;61560;33.718;73.040;2023-03-23T08:25:30;94670.66;;;22.72;51.93
73332;BME280;61560;33.718;73.040;2023-03-23T08:28:34;94670.03;;;22.88;51.60
73332;BME280;61560;33.718;73.040;2023-03-23T08:31:20;94668.03;;;22.94;51.44
73332;BME280;61560;33.718;73.040;2023-03-23T08:34:23;94662.75;;;23.02;50.68
73332;BME280;61560;33.718;73.040;2023-03-23T08:37:04;94656.94;;;23.05;50.04
73332;BME280;61560;33.718;73.040;2023-03-23T08:39:52;94650.34;;;23.08;49.15
73332;BME280;61560;33.718;73.040;2023-03-23T08:42:51;94655.72;;;23.12;50.12
73332;BME280;61560;33.718;73.040;2023-03-23T08:45:36;94645.31;;;23.12;50.23
73332;BME280;61560;33.718;73.040;2023-03-23T08:48:16;94646.56;;;23.11;49.65
73332;BME280;61560;33.718;73.040;2023-03-23T08:51:10;94639.88;;;22.98;49.93
73332;BME280;61560;33.718;73.040;2023-03-23T08:53:38;94631.47;;;22.92;50.01
73332;BME280;61560;33.718;73.040;2023-03-23T08:56:25;94634.47;;;22.89;48.16
73332;BME280;61560;33.718;73.040;2023-03-23T08:59:12;94626.59;;;22.87;47.47
73332;BME280;61560;33.718;73.040;2023-03-23T09:01:54;94625.00;;;22.80;48.04
73332;BME280;61560;33.718;73.040;2023-03-23T09:04:28;94616.84;;;22.71;50.43
73332;BME280;61560;33.718;73.040;2023-03-23T09:07:12;94614.72;;;22.61;49.75
73332;BME280;61560;33.718;73.040;2023-03-23T09:09:43;94619.19;;;22.53;49.36
73332;BME280;61560;33.718;73.040;2023-03-23T09:12:11;94606.75;;;22.54;49.36
73332;BME280;61560;33.718;73.040;2023-03-23T09:14:38;94607.31;;;22.58;49.75
73332;BME280;61560;33.718;73.040;2023-03-23T09:17:06;94620.50;;;22.57;47.54
73332;BME280;61560;33.718;73.040;2023-03-23T09:19:34;94614.91;;;22.57;48.97
73332;BME280;61560;33.718;73.040;2023-03-23T09:22:02;94608.03;;;22.53;50.34
73332;BME280;61560;33.718;73.040;2023-03-23T09:24:30;94614.66;;;22.55;50.18
73332;BME280;61560;33.718;73.040;2023-03-23T09:26:58;94609.53;;;22.54;50.65
73332;BME280;61560;33.718;73.040;2023-03-23T09:29:26;94614.16;;;22.57;50.70
73332;BME280;61560;33.718;73.040;2023-03-23T09:31:54;94603.47;;;22.55;50.90
73332;BME280;61560;33.718;73.040;2023-03-23T09:34:22;94600.97;;;22.57;51.99
73332;BME280;61560;33.718;73.040;2023-03-23T09:36:49;94603.75;;;22.57;52.36
73332;BME280;61560;33.718;73.040;2023-03-23T09:39:16;94612.44;;;22.59;52.22
73332;BME280;61560;33.718;73.040;2023-03-23T09:44:47;94608.91;;;22.64;51.79
73332;BME280;61560;33.718;73.040;2023-03-23T09:47:38;94605.16;;;22.73;51.54
73332;BME280;61560;33.718;73.040;2023-03-23T09:50:12;94608.25;;;22.80;51.17
73332;BME280;61560;33.718;73.040;2023-03-23T09:52:55;94602.72;;;22.86;51.98
73332;BME280;61560;33.718;73.040;2023-03-23T09:55:24;94609.13;;;22.92;51.79
73332;BME280;61560;33.718;73.040;2023-03-23T10:01:10;94605.13;;;23.04;51.48
73332;BME280;61560;33.718;73.040;2023-03-23T10:03:42;94590.13;;;23.02;49.11
73332;BME280;61560;33.718;73.040;2023-03-23T10:06:13;94588.06;;;22.97;49.82
73332;BME280;61560;33.718;73.040;2023-03-23T10:08:46;94587.25;;;22.91;49.57
73332;BME280;61560;33.718;73.040;2023-03-23T10:11:24;94587.31;;;22.96;49.78
73332;BME280;61560;33.718;73.040;2023-03-23T10:16:24;94583.97;;;22.92;50.97
73332;BME280;61560;33.718;73.040;2023-03-23T10:21:24;94575.81;;;22.89;50.42
73332;BME280;61560;33.718;73.040;2023-03-23T10:23:56;94577.34;;;22.90;50.65
73332;BME280;61560;33.718;73.040;2023-03-23T10:29:25;94569.78;;;23.01;49.47
73332;BME280;61560;33.718;73.040;2023-03-23T10:32:01;94566.00;;;22.99;49.27
73332;BME280;61560;33.718;73.040;2023-03-23T10:34:54;94566.47;;;22.97;49.08
73332;BME280;61560;33.718;73.040;2023-03-23T10:37:38;94545.94;;;23.00;48.93
73332;BME280;61560;33.718;73.040;2023-03-23T10:40:21;94548.47;;;22.98;48.42
73332;BME280;61560;33.718;73.040;2023-03-23T10:42:51;94546.63;;;22.90;48.21
73332;BME280;61560;33.718;73.040;2023-03-23T10:45:36;94540.25;;;22.84;49.14
73332;BME280;61560;33.718;73.040;2023-03-23T10:50:39;94539.47;;;22.83;49.99
73332;BME280;61560;33.718;73.040;2023-03-23T10:53:19;94541.97;;;22.75;49.51
73332;BME280;61560;33.718;73.040;2023-03-23T10:55:48;94542.97;;;22.72;49.05
73332;BME280;61560;33.718;73.040;2023-03-23T10:58:34;94534.31;;;22.70;49.34
73332;BME280;61560;33.718;73.040;2023-03-23T11:01:04;94539.63;;;22.68;48.85
73332;BME280;61560;33.718;73.040;2023-03-23T11:03:47;94536.03;;;22.62;48.22
73332;BME280;61560;33.718;73.040;2023-03-23T11:06:26;94521.81;;;22.60;49.16
73332;BME280;61560;33.718;73.040;2023-03-23T11:09:17;94520.00;;;22.57;49.20
73332;BME280;61560;33.718;73.040;2023-03-23T11:11:53;94525.06;;;22.53;48.80
73332;BME280;61560;33.718;73.040;2023-03-23T11:14:27;94512.84;;;22.51;49.19
73332;BME280;61560;33.718;73.040;2023-03-23T11:16:57;94515.63;;;22.51;49.32
73332;BME280;61560;33.718;73.040;2023-03-23T11:19:26;94504.44;;;22.45;48.88
73332;BME280;61560;33.718;73.040;2023-03-23T11:22:16;94502.63;;;22.42;48.45
73332;BME280;61560;33.718;73.040;2023-03-23T11:24:47;94500.34;;;22.41;49.11
73332;BME280;61560;33.718;73.040;2023-03-23T11:27:19;94499.31;;;22.38;49.40
73332;BME280;61560;33.718;73.040;2023-03-23T11:30:40;94496.03;;;22.40;49.61
73332;BME280;61560;33.718;73.040;2023-03-23T11:32:44;94491.91;;;22.35;49.76
73332;BME280;61560;33.718;73.040;2023-03-23T11:35:30;94499.00;;;22.31;49.19
73332;BME280;61560;33.718;73.040;2023-03-23T11:37:59;94493.63;;;22.27;49.17
73332;BME280;61560;33.718;73.040;2023-03-23T11:40:29;94496.13;;;22.20;48.76
73332;BME280;61560;33.718;73.040;2023-03-23T11:43:14;94496.63;;;22.18;49.37
73332;BME280;61560;33.718;73.040;2023-03-23T11:48:43;94495.81;;;22.12;50.08
73332;BME280;61560;33.718;73.040;2023-03-23T11:52:01;94502.63;;;22.06;50.13
73332;BME280;61560;33.718;73.040;2023-03-23T11:54:28;94503.81;;;21.99;50.41
73332;BME280;61560;33.718;73.040;2023-03-23T11:56:57;94503.78;;;21.93;50.95
73332;BME280;61560;33.718;73.040;2023-03-23T11:59:33;94506.50;;;21.88;51.51
73332;BME280;61560;33.718;73.040;2023-03-23T12:02:36;94514.31;;;21.84;52.57
73332;BME280;61560;33.718;73.040;2023-03-23T12:08:02;94516.25;;;21.78;52.35
73332;BME280;61560;33.718;73.040;2023-03-23T12:13:31;94509.44;;;21.79;52.27
73332;BME280;61560;33.718;73.040;2023-03-23T12:19:02;94507.84;;;21.72;52.62
73332;BME280;61560;33.718;73.040;2023-03-23T12:24:37;94501.97;;;21.65;52.38
73332;BME280;61560;33.718;73.040;2023-03-23T12:28:18;94510.31;;;21.65;52.52
73332;BME280;61560;33.718;73.040;2023-03-23T12:30:28;94494.25;;;21.54;53.72
73332;BME280;61560;33.718;73.040;2023-03-23T12:36:07;94507.22;;;21.37;54.17
73332;BME280;61560;33.718;73.040;2023-03-23T12:44:12;94499.03;;;21.08;54.06
73332;BME280;61560;33.718;73.040;2023-03-23T12:49:32;94504.13;;;20.89;54.40
73332;BME280;61560;33.718;73.040;2023-03-23T12:52:35;94508.75;;;20.78;54.16
73332;BME280;61560;33.718;73.040;2023-03-23T12:55:04;94502.56;;;20.68;54.61
73332;BME280;61560;33.718;73.040;2023-03-23T13:00:31;94504.13;;;20.55;54.91
73332;BME280;61560;33.718;73.040;2023-03-23T13:05:53;94510.03;;;20.42;55.63
73332;BME280;61560;33.718;73.040;2023-03-23T13:08:32;94508.16;;;20.33;55.72
73332;BME280;61560;33.718;73.040;2023-03-23T13:11:04;94509.59;;;20.29;55.73
73332;BME280;61560;33.718;73.040;2023-03-23T13:13:54;94514.00;;;20.21;55.90
73332;BME280;61560;33.718;73.040;2023-03-23T13:19:30;94513.50;;;20.08;55.91
73332;BME280;61560;33.718;73.040;2023-03-23T13:24:55;94508.53;;;19.97;56.02
73332;BME280;61560;33.718;73.040;2023-03-23T13:27:25;94507.22;;;19.93;56.07
73332;BME280;61560;33.718;73.040;2023-03-23T13:29:58;94503.28;;;19.85;55.96
73332;BME280;61560;33.718;73.040;2023-03-23T13:32:35;94506.72;;;19.80;55.82
73332;BME280;61560;33.718;73.040;2023-03-23T13:35:11;94507.41;;;19.75;55.67
73332;BME280;61560;33.718;73.040;2023-03-23T13:37:46;94500.22;;;19.68;55.94
73332;BME280;61560;33.718;73.040;2023-03-23T13:40:28;94508.28;;;19.66;55.87
73332;BME280;61560;33.718;73.040;2023-03-23T13:42:59;94511.72;;;19.61;56.07
73332;BME280;61560;33.718;73.040;2023-03-23T13:48:18;94508.66;;;19.59;56.43
73332;BME280;61560;33.718;73.040;2023-03-23T13:50:56;94503.28;;;19.55;56.38
73332;BME280;61560;33.718;73.040;2023-03-23T13:53:30;94512.28;;;19.50;56.66
73332;BME280;61560;33.718;73.040;2023-03-23T13:58:52;94519.25;;;19.46;56.93
73332;BME280;61560;33.718;73.040;2023-03-23T14:01:33;94513.41;;;19.44;57.25
73332;BME280;61560;33.718;73.040;2023-03-23T14:04:06;94517.63;;;19.39;57.74
73332;BME280;61560;33.718;73.040;2023-03-23T14:06:35;94515.03;;;19.36;58.26
73332;BME280;61560;33.718;73.040;2023-03-23T14:09:32;94512.59;;;19.29;58.57
73332;BME280;61560;33.718;73.040;2023-03-23T14:12:04;94517.88;;;19.27;58.83
73332;BME280;61560;33.718;73.040;2023-03-23T14:14:51;94516.31;;;19.26;58.92
73332;BME280;61560;33.718;73.040;2023-03-23T14:17:26;94514.50;;;19.23;59.12
73332;BME280;61560;33.718;73.040;2023-03-23T14:19:56;94508.66;;;19.21;59.29
73332;BME280;61560;33.718;73.040;2023-03-23T14:22:37;94503.00;;;19.15;59.49
73332;BME280;61560;33.718;73.040;2023-03-23T14:25:16;94504.72;;;19.13;59.72
73332;BME280;61560;33.718;73.040;2023-03-23T14:27:44;94504.44;;;19.11;59.79
73332;BME280;61560;33.718;73.040;2023-03-23T14:30:20;94501.53;;;19.05;59.85
73332;BME280;61560;33.718;73.040;2023-03-23T14:32:47;94497.69;;;19.03;59.63
73332;BME280;61560;33.718;73.040;2023-03-23T14:35:23;94500.94;;;19.01;59.76
73332;BME280;61560;33.718;73.040;2023-03-23T14:37:54;94506.88;;;18.94;60.40
73332;BME280;61560;33.718;73.040;2023-03-23T14:40:22;94510.09;;;18.93;60.30
73332;BME280;61560;33.718;73.040;2023-03-23T14:42:50;94513.84;;;18.90;60.73
73332;BME280;61560;33.718;73.040;2023-03-23T14:45:22;94514.78;;;18.87;61.13
73332;BME280;61560;33.718;73.040;2023-03-23T14:47:56;94518.50;;;18.84;61.36
73332;BME280;61560;33.718;73.040;2023-03-23T14:50:41;94527.47;;;18.78;61.87
73332;BME280;61560;33.718;73.040;2023-03-23T14:53:19;94526.13;;;18.74;62.29
73332;BME280;61560;33.718;73.040;2023-03-23T14:55:51;94529.84;;;18.71;63.02
73332;BME280;61560;33.718;73.040;2023-03-23T14:58:22;94538.81;;;18.66;63.62
73332;BME280;61560;33.718;73.040;2023-03-23T15:03:30;94550.13;;;18.53;64.34
73332;BME280;61560;33.718;73.040;2023-03-23T15:06:05;94550.47;;;18.46;64.70
73332;BME280;61560;33.718;73.040;2023-03-23T15:08:35;94551.25;;;18.38;65.13
73332;BME280;61560;33.718;73.040;2023-03-23T15:13:49;94561.94;;;18.30;65.65
73332;BME280;61560;33.718;73.040;2023-03-23T15:16:23;94560.06;;;18.27;65.68
73332;BME280;61560;33.718;73.040;2023-03-23T15:18:57;94562.25;;;18.23;65.58
73332;BME280;61560;33.718;73.040;2023-03-23T15:23:58;94561.81;;;18.16;66.01
73332;BME280;61560;33.718;73.040;2023-03-23T15:31:54;94573.59;;;18.02;66.59
73332;BME280;61560;33.718;73.040;2023-03-23T15:34:36;94582.34;;;18.00;66.41
73332;BME280;61560;33.718;73.040;2023-03-23T15:37:28;94585.59;;;17.98;66.95
73332;BME280;61560;33.718;73.040;2023-03-23T15:39:58;94576.50;;;17.98;67.03
73332;BME280;61560;33.718;73.040;2023-03-23T15:42:32;94589.59;;;17.97;66.93
73332;BME280;61560;33.718;73.040;2023-03-23T15:47:47;94607.63;;;17.93;67.03
73332;BME280;61560;33.718;73.040;2023-03-23T15:50:34;94616.53;;;17.88;66.64
73332;BME280;61560;33.718;73.040;2023-03-23T15:53:35;94609.19;;;17.85;66.53
73332;BME280;61560;33.718;73.040;2023-03-23T15:56:05;94600.56;;;17.83;66.60
73332;BME280;61560;33.718;73.040;2023-03-23T15:58:32;94611.03;;;17.79;66.91
73332;BME280;61560;33.718;73.040;2023-03-23T16:01:13;94621.81;;;17.77;67.20
73332;BME280;61560;33.718;73.040;2023-03-23T16:06:12;94621.19;;;17.64;67.87
73332;BME280;61560;33.718;73.040;2023-03-23T16:08:39;94612.59;;;17.62;67.89
73332;BME280;61560;33.718;73.040;2023-03-23T16:11:10;94611.66;;;17.56;67.86
73332;BME280;61560;33.718;73.040;2023-03-23T16:13:46;94607.97;;;17.50;68.07
73332;BME280;61560;33.718;73.040;2023-03-23T16:16:39;94629.97;;;17.53;67.63
73332;BME280;61560;33.718;73.040;2023-03-23T16:19:10;94623.00;;;17.49;67.46
73332;BME280;61560;33.718;73.040;2023-03-23T16:21:38;94619.78;;;17.41;67.28
73332;BME280;61560;33.718;73.040;2023-03-23T16:24:06;94614.41;;;17.38;66.99
73332;BME280;61560;33.718;73.040;2023-03-23T16:26:34;94619.03;;;17.32;66.97
73332;BME280;61560;33.718;73.040;2023-03-23T16:29:01;94616.25;;;17.32;66.98
73332;BME280;61560;33.718;73.040;2023-03-23T16:31:29;94621.47;;;17.30;67.20
73332;BME280;61560;33.718;73.040;2023-03-23T16:33:56;94611.63;;;17.29;67.12
73332;BME280;61560;33.718;73.040;2023-03-23T16:36:24;94607.63;;;17.30;67.37
73332;BME280;61560;33.718;73.040;2023-03-23T16:38:51;94607.34;;;17.28;67.67
73332;BME280;61560;33.718;73.040;2023-03-23T16:41:22;94604.56;;;17.28;67.71
73332;BME280;61560;33.718;73.040;2023-03-23T16:43:49;94590.25;;;17.29;67.88
73332;BME280;61560;33.718;73.040;2023-03-23T16:46:16;94596.88;;;17.32;67.72
73332;BME280;61560;33.718;73.040;2023-03-23T16:48:43;94583.81;;;17.32;67.80
73332;BME280;61560;33.718;73.040;2023-03-23T16:51:18;94580.56;;;17.34;67.78
73332;BME280;61560;33.718;73.040;2023-03-23T16:53:45;94571.50;;;17.33;67.64
73332;BME280;61560;33.718;73.040;2023-03-23T16:56:12;94571.19;;;17.31;67.44